createdAt,value
2023-05-02T00:02:17.236Z,101331.13
2023-05-02T00:04:45.545Z,101327.45
2023-05-02T00:07:13.537Z,101329.39
2023-05-02T00:09:41.537Z,101323.96
2023-05-02T00:12:09.552Z,101321.00
2023-05-02T00:14:37.721Z,101318.20
2023-05-02T00:17:05.852Z,101318.89
2023-05-02T00:19:39.212Z,101313.48
2023-05-02T00:22:07.279Z,101311.05
2023-05-02T00:24:35.333Z,101309.84
2023-05-02T00:27:04.221Z,101304.24
2023-05-02T00:29:32.138Z,101298.14
2023-05-02T00:32:00.872Z,101298.67
2023-05-02T00:34:32.268Z,101295.38
2023-05-02T00:37:00.294Z,101287.86
2023-05-02T00:39:28.363Z,101282.27
2023-05-02T00:42:00.161Z,101275.11
2023-05-02T00:44:28.873Z,101275.99
2023-05-02T00:46:58.063Z,101269.88
2023-05-02T00:49:26.176Z,101268.48
2023-05-02T00:51:55.179Z,101270.23
2023-05-02T00:54:23.240Z,101267.07
2023-05-02T00:56:51.717Z,101264.98
2023-05-02T00:59:20.389Z,101263.04
2023-05-02T01:02:00.666Z,101256.04
2023-05-02T01:04:40.911Z,101257.44
2023-05-02T01:07:46.054Z,101253.59
2023-05-02T01:10:31.151Z,101255.20
2023-05-02T01:13:08.127Z,101255.02
2023-05-02T01:15:39.621Z,101250.98
2023-05-02T01:18:10.981Z,101250.81
2023-05-02T01:20:43.041Z,101246.95
2023-05-02T01:23:27.420Z,101246.42
2023-05-02T01:26:14.223Z,101245.20
2023-05-02T01:28:42.292Z,101247.14
2023-05-02T01:31:12.314Z,101243.64
2023-05-02T01:33:40.691Z,101247.46
2023-05-02T01:36:09.835Z,101247.13
2023-05-02T01:38:40.184Z,101245.20
2023-05-02T01:41:09.565Z,101243.27
2023-05-02T01:43:39.744Z,101245.54
2023-05-02T01:46:10.434Z,101247.98
2023-05-02T01:48:41.020Z,101253.05
2023-05-02T01:51:10.106Z,101245.90
2023-05-02T01:53:40.009Z,101239.80
2023-05-02T01:56:08.689Z,101240.67
2023-05-02T01:58:38.190Z,101241.02
2023-05-02T02:01:07.707Z,101237.38
2023-05-02T02:03:35.764Z,101237.73
2023-05-02T02:06:05.570Z,101237.73
2023-05-02T02:08:33.681Z,101234.24
2023-05-02T02:11:09.783Z,101229.35
2023-05-02T02:13:49.217Z,101231.27
2023-05-02T02:16:24.696Z,101227.98
2023-05-02T02:18:56.717Z,101224.85
2023-05-02T02:21:29.222Z,101220.13
2023-05-02T02:24:02.212Z,101219.27
2023-05-02T02:26:30.408Z,101222.60
2023-05-02T02:28:59.575Z,101220.34
2023-05-02T02:31:35.994Z,101213.71
2023-05-02T02:34:04.318Z,101214.95
2023-05-02T02:36:45.294Z,101224.23
2023-05-02T02:39:25.520Z,101224.92
2023-05-02T02:42:08.879Z,101221.98
2023-05-02T02:44:36.847Z,101224.62
2023-05-02T02:47:22.323Z,101227.23
2023-05-02T02:50:04.542Z,101220.97
2023-05-02T02:52:36.383Z,101220.98
2023-05-02T02:55:16.642Z,101220.45
2023-05-02T02:58:15.837Z,101219.07
2023-05-02T03:00:46.366Z,101214.73
2023-05-02T03:03:16.589Z,101213.34
2023-05-02T03:05:46.437Z,101208.45
2023-05-02T03:08:15.800Z,101213.00
2023-05-02T03:10:43.973Z,101210.04
2023-05-02T03:13:12.667Z,101213.71
2023-05-02T03:15:54.138Z,101214.06
2023-05-02T03:18:26.414Z,101208.13
2023-05-02T03:20:55.342Z,101208.13
2023-05-02T03:23:23.683Z,101209.52
2023-05-02T03:25:53.184Z,101204.81
2023-05-02T03:28:21.668Z,101201.13
2023-05-02T03:30:50.662Z,101203.93
2023-05-02T03:33:19.216Z,101203.75
2023-05-02T03:35:47.464Z,101206.36
2023-05-02T03:38:15.687Z,101200.59
2023-05-02T03:40:44.579Z,101193.07
2023-05-02T03:43:12.854Z,101192.02
2023-05-02T03:45:41.252Z,101194.61
2023-05-02T03:48:09.349Z,101198.97
2023-05-02T03:50:38.297Z,101206.48
2023-05-02T03:53:08.514Z,101208.02
2023-05-02T03:55:41.258Z,101213.61
2023-05-02T03:58:11.132Z,101220.92
2023-05-02T04:00:39.280Z,101220.39
2023-05-02T04:03:08.121Z,101219.66
2023-05-02T04:05:38.699Z,101216.14
2023-05-02T04:08:07.223Z,101212.96
2023-05-02T04:10:35.476Z,101210.67
2023-05-02T04:13:06.597Z,101212.74
2023-05-02T04:15:35.900Z,101204.86
2023-05-02T04:18:04.806Z,101205.55
2023-05-02T04:20:33.380Z,101207.63
2023-05-02T04:23:01.562Z,101202.20
2023-05-02T04:25:29.722Z,101209.16
2023-05-02T04:28:01.367Z,101210.36
2023-05-02T04:30:29.647Z,101211.41
2023-05-02T04:33:03.947Z,101217.35
2023-05-02T04:35:35.268Z,101221.38
2023-05-02T04:38:04.148Z,101225.91
2023-05-02T04:40:33.877Z,101227.30
2023-05-02T04:43:05.967Z,101225.55
2023-05-02T04:45:42.029Z,101224.67
2023-05-02T04:48:16.245Z,101227.45
2023-05-02T04:50:46.396Z,101234.08
2023-05-02T04:53:14.441Z,101237.38
2023-05-02T04:55:43.326Z,101240.68
2023-05-02T04:58:12.017Z,101238.39
2023-05-02T05:00:40.504Z,101239.59
2023-05-02T05:03:08.758Z,101239.20
2023-05-02T05:05:37.281Z,101238.11
2023-05-02T05:08:07.796Z,101227.92
2023-05-02T05:10:37.786Z,101236.63
2023-05-02T05:13:06.064Z,101238.68
2023-05-02T05:15:34.774Z,101242.50
2023-05-02T05:18:03.842Z,101242.83
2023-05-02T05:20:31.882Z,101245.42
2023-05-02T05:23:02.132Z,101245.04
2023-05-02T05:25:30.614Z,101245.36
2023-05-02T05:28:00.620Z,101244.11
2023-05-02T05:30:31.130Z,101248.61
2023-05-02T05:33:00.767Z,101245.79
2023-05-02T05:35:28.844Z,101242.09
2023-05-02T05:37:57.723Z,101249.59
2023-05-02T05:40:26.213Z,101246.77
2023-05-02T05:42:57.666Z,101243.95
2023-05-02T05:45:30.030Z,101239.95
2023-05-02T05:47:58.246Z,101245.35
2023-05-02T05:50:28.360Z,101242.89
2023-05-02T05:52:57.309Z,101240.04
2023-05-02T05:55:27.798Z,101233.23
2023-05-02T05:57:56.113Z,101230.27
2023-05-02T06:00:24.721Z,101244.48
2023-05-02T06:02:53.146Z,101243.77
2023-05-02T06:05:30.265Z,101247.27
2023-05-02T06:07:59.151Z,101247.24
2023-05-02T06:10:27.938Z,101244.61
2023-05-02T06:12:56.112Z,101242.83
2023-05-02T06:15:28.073Z,101242.80
2023-05-02T06:17:56.053Z,101244.17
2023-05-02T06:20:24.260Z,101243.81
2023-05-02T06:22:52.286Z,101244.48
2023-05-02T06:25:20.251Z,101250.95
2023-05-02T06:27:48.216Z,101249.75
2023-05-02T06:30:16.224Z,101257.60
2023-05-02T06:32:44.509Z,101251.98
2023-05-02T06:35:12.840Z,101251.11
2023-05-02T06:37:41.021Z,101250.40
2023-05-02T06:40:10.318Z,101256.35
2023-05-02T06:42:38.289Z,101258.29
2023-05-02T06:45:07.138Z,101263.33
2023-05-02T06:47:35.215Z,101268.04
2023-05-02T06:50:03.739Z,101273.08
2023-05-02T06:52:31.856Z,101278.97
2023-05-02T06:54:59.881Z,101282.24
2023-05-02T06:57:27.931Z,101286.92
2023-05-02T06:59:56.313Z,101288.61
2023-05-02T07:02:24.342Z,101295.73
2023-05-02T07:04:52.550Z,101294.83
2023-05-02T07:07:22.209Z,101300.58
2023-05-02T07:09:50.274Z,101299.00
2023-05-02T07:12:18.337Z,101301.08
2023-05-02T07:14:47.095Z,101306.48
2023-05-02T07:17:15.992Z,101307.33
2023-05-02T07:19:45.465Z,101309.27
2023-05-02T07:22:14.276Z,101316.50
2023-05-02T07:24:42.354Z,101323.75
2023-05-02T07:27:11.498Z,101323.95
2023-05-02T07:29:40.190Z,101327.27
2023-05-02T07:32:08.236Z,101331.06
2023-05-02T07:34:36.494Z,101336.75
2023-05-02T07:37:04.546Z,101333.88
2023-05-02T07:39:33.990Z,101331.20
2023-05-02T07:42:03.527Z,101330.95
2023-05-02T07:44:33.628Z,101334.01
2023-05-02T07:47:01.634Z,101337.26
2023-05-02T07:49:29.914Z,101342.95
2023-05-02T07:51:58.488Z,101348.30
2023-05-02T07:54:26.559Z,101350.49
2023-05-02T07:56:55.346Z,101349.35
2023-05-02T07:59:23.259Z,101352.95
2023-05-02T08:01:51.385Z,101352.19
2023-05-02T08:04:19.987Z,101357.94
2023-05-02T08:06:48.101Z,101357.60
2023-05-02T08:09:16.108Z,101360.74
2023-05-02T08:11:44.251Z,101367.58
2023-05-02T08:14:12.383Z,101364.94
2023-05-02T08:16:40.606Z,101363.33
2023-05-02T08:19:09.280Z,101366.98
2023-05-02T08:21:37.391Z,101358.90
2023-05-02T08:24:06.068Z,101358.91
2023-05-02T08:26:34.187Z,101364.00
2023-05-02T08:29:03.289Z,101370.48
2023-05-02T08:31:31.465Z,101369.08
2023-05-02T08:33:59.890Z,101375.55
2023-05-02T08:36:28.935Z,101376.60
2023-05-02T08:38:56.956Z,101377.13
2023-05-02T08:41:26.631Z,101377.98
2023-05-02T08:43:54.993Z,101376.73
2023-05-02T08:46:23.671Z,101379.88
2023-05-02T08:48:52.660Z,101385.11
2023-05-02T08:51:24.590Z,101386.13
2023-05-02T08:53:53.468Z,101381.70
2023-05-02T08:56:22.030Z,101384.98
2023-05-02T08:58:50.018Z,101384.35
2023-05-02T09:01:22.011Z,101381.27
2023-05-02T09:03:50.755Z,101388.02
2023-05-02T09:06:21.456Z,101394.61
2023-05-02T09:08:54.514Z,101395.71
2023-05-02T09:11:22.578Z,101396.90
2023-05-02T09:13:52.777Z,101397.16
2023-05-02T09:16:23.203Z,101397.44
2023-05-02T09:18:56.831Z,101392.25
2023-05-02T09:21:26.922Z,101392.27
2023-05-02T09:23:57.054Z,101394.86
2023-05-02T09:26:29.510Z,101399.70
2023-05-02T09:29:04.682Z,101394.52
2023-05-02T09:31:54.876Z,101403.33
2023-05-02T09:34:24.599Z,101404.83
2023-05-02T09:36:56.339Z,101411.11
2023-05-02T09:39:31.511Z,101407.79
2023-05-02T09:42:00.134Z,101413.85
2023-05-02T09:44:37.666Z,101422.90
2023-05-02T09:47:06.985Z,101423.64
2023-05-02T09:49:46.505Z,101431.77
2023-05-02T09:52:17.030Z,101432.58
2023-05-02T09:54:52.334Z,101432.48
2023-05-02T09:57:20.711Z,101430.42
2023-05-02T09:59:56.548Z,101431.48
2023-05-02T10:02:31.386Z,101433.89
2023-05-02T10:05:02.244Z,101434.61
2023-05-02T10:07:30.958Z,101435.40
2023-05-02T10:10:01.746Z,101438.06
2023-05-02T10:12:32.495Z,101437.54
2023-05-02T10:15:04.866Z,101435.15
2023-05-02T10:17:42.408Z,101437.67
2023-05-02T10:20:12.574Z,101440.94
2023-05-02T10:22:41.095Z,101441.45
2023-05-02T10:25:09.645Z,101444.39
2023-05-02T10:27:38.053Z,101443.60
2023-05-02T10:30:08.045Z,101446.48
2023-05-02T10:32:38.173Z,101448.77
2023-05-02T10:35:06.874Z,101444.52
2023-05-02T10:37:38.450Z,101444.02
2023-05-02T10:40:11.765Z,101449.73
2023-05-02T10:42:43.329Z,101446.39
2023-05-02T10:45:29.752Z,101445.33
2023-05-02T10:48:18.195Z,101444.77
2023-05-02T10:50:47.762Z,101444.83
2023-05-02T10:53:48.167Z,101447.66
2023-05-02T10:56:18.573Z,101447.56
2023-05-02T10:58:49.246Z,101439.25
2023-05-02T11:01:27.306Z,101434.25
2023-05-02T11:03:58.989Z,101429.98
2023-05-02T11:06:29.024Z,101432.27
2023-05-02T11:09:16.054Z,101435.09
2023-05-02T11:11:48.321Z,101436.65
2023-05-02T11:14:39.623Z,101438.76
2023-05-02T11:17:09.196Z,101439.46
2023-05-02T11:19:43.289Z,101451.89
2023-05-02T11:22:20.853Z,101464.13
2023-05-02T11:24:50.650Z,101471.65
2023-05-02T11:27:30.950Z,101472.09
2023-05-02T11:29:59.878Z,101481.64
2023-05-02T11:32:46.478Z,101492.74
2023-05-02T11:35:22.060Z,101504.14
2023-05-02T11:37:57.470Z,101514.98
2023-05-02T11:40:27.269Z,101525.33
2023-05-02T11:42:56.799Z,101537.64
2023-05-02T11:45:37.954Z,101538.43
2023-05-02T11:48:07.339Z,101546.30
2023-05-02T11:50:48.603Z,101546.46
2023-05-02T11:53:23.634Z,101560.87
2023-05-02T11:55:54.901Z,101563.71
2023-05-02T11:58:25.024Z,101568.85
2023-05-02T12:00:53.565Z,101573.35
2023-05-02T12:03:28.451Z,101580.36
2023-05-02T12:05:58.277Z,101584.29
2023-05-02T12:08:28.503Z,101586.58
2023-05-02T12:10:57.401Z,101589.02
2023-05-02T12:13:26.859Z,101598.61
2023-05-02T12:15:55.414Z,101600.85
2023-05-02T12:18:25.005Z,101609.56
2023-05-02T12:20:55.271Z,101616.95
2023-05-02T12:23:26.803Z,101624.38
2023-05-02T12:25:54.854Z,101628.30
2023-05-02T12:28:24.220Z,101636.95
2023-05-02T12:30:52.252Z,101642.62
2023-05-02T12:33:20.315Z,101661.74
2023-05-02T12:35:48.998Z,101675.09
2023-05-02T12:38:20.598Z,101687.27
2023-05-02T12:40:54.224Z,101689.16
2023-05-02T12:43:22.572Z,101705.82
2023-05-02T12:45:53.801Z,101713.21
2023-05-02T12:48:28.191Z,101720.11
2023-05-02T12:50:56.316Z,101720.80
2023-05-02T12:53:44.408Z,101730.56
2023-05-02T12:56:13.500Z,101734.39
2023-05-02T12:58:45.968Z,101742.92
2023-05-02T13:01:15.320Z,101746.63
2023-05-02T13:03:44.535Z,101749.10
2023-05-02T13:06:12.732Z,101761.40
2023-05-02T13:08:40.928Z,101762.30
2023-05-02T13:11:09.217Z,101764.75
2023-05-02T13:13:37.193Z,101769.30
2023-05-02T13:16:06.279Z,101773.68
2023-05-02T13:18:34.281Z,101775.08
2023-05-02T13:21:02.292Z,101787.33
2023-05-02T13:23:30.550Z,101788.03
2023-05-02T13:25:58.502Z,101791.88
2023-05-02T13:28:26.972Z,101795.91
2023-05-02T13:30:55.008Z,101798.71
2023-05-02T13:33:23.008Z,101803.44
2023-05-02T13:35:51.019Z,101810.96
2023-05-02T13:38:18.910Z,101811.84
2023-05-02T13:40:46.948Z,101815.86
2023-05-02T13:43:15.571Z,101815.52
2023-05-02T13:45:43.600Z,101821.29
2023-05-02T13:48:11.604Z,101826.02
2023-05-02T13:50:39.700Z,101826.71
2023-05-02T13:53:07.667Z,101828.46
2023-05-02T13:55:35.717Z,101831.61
2023-05-02T13:58:03.814Z,101836.86
2023-05-02T14:00:31.749Z,101841.59
2023-05-02T14:02:59.876Z,101848.93
2023-05-02T14:05:28.018Z,101858.02
2023-05-02T14:07:56.012Z,101861.35
2023-05-02T14:10:23.946Z,101865.70
2023-05-02T14:12:53.238Z,101864.46
2023-05-02T14:15:21.244Z,101870.58
2023-05-02T14:17:50.171Z,101869.16
2023-05-02T14:20:18.233Z,101870.73
2023-05-02T14:22:46.150Z,101880.33
2023-05-02T14:25:15.757Z,101893.25
2023-05-02T14:27:44.448Z,101894.27
2023-05-02T14:30:12.829Z,101895.62
2023-05-02T14:32:40.913Z,101898.33
2023-05-02T14:35:09.528Z,101907.56
2023-05-02T14:37:37.474Z,101914.04
2023-05-02T14:40:06.349Z,101911.23
2023-05-02T14:42:34.504Z,101916.64
2023-05-02T14:45:02.900Z,101921.33
2023-05-02T14:47:31.250Z,101924.77
2023-05-02T14:49:59.800Z,101928.55
2023-05-02T14:52:28.009Z,101937.64
2023-05-02T14:54:55.979Z,101943.02
2023-05-02T14:57:24.008Z,101946.27
2023-05-02T14:59:52.164Z,101941.69
2023-05-02T15:02:20.249Z,101946.20
2023-05-02T15:04:48.267Z,101952.64
2023-05-02T15:07:16.730Z,101959.10
2023-05-02T15:09:45.221Z,101958.73
2023-05-02T15:12:13.337Z,101958.38
2023-05-02T15:14:41.577Z,101966.20
2023-05-02T15:17:10.107Z,101962.35
2023-05-02T15:19:38.221Z,101957.30
2023-05-02T15:22:06.172Z,101957.48
2023-05-02T15:24:34.182Z,101968.95
2023-05-02T15:27:03.732Z,101970.25
2023-05-02T15:29:31.734Z,101974.75
2023-05-02T15:31:59.832Z,101973.86
2023-05-02T15:34:28.349Z,101980.44
2023-05-02T15:36:57.938Z,101987.56
2023-05-02T15:39:28.119Z,101988.41
2023-05-02T15:41:57.049Z,101990.98
2023-05-02T15:44:26.416Z,101989.73
2023-05-02T15:46:56.219Z,101986.60
2023-05-02T15:49:25.207Z,101991.48
2023-05-02T15:51:53.138Z,101993.52
2023-05-02T15:54:21.252Z,102000.09
2023-05-02T15:56:49.538Z,102000.91
2023-05-02T15:59:17.590Z,102012.86
2023-05-02T16:01:45.889Z,102014.00
2023-05-02T16:04:13.998Z,102011.89
2023-05-02T16:06:42.202Z,102013.05
2023-05-02T16:09:10.811Z,102023.51
2023-05-02T16:11:38.865Z,102027.59
2023-05-02T16:14:07.030Z,102031.98
2023-05-02T16:16:35.640Z,102030.09
2023-05-02T16:19:03.752Z,102029.26
2023-05-02T16:21:31.826Z,102030.29
2023-05-02T16:23:59.833Z,102034.75
2023-05-02T16:26:29.546Z,102036.11
2023-05-02T16:28:58.327Z,102031.34
2023-05-02T16:31:26.643Z,102039.73
2023-05-02T16:33:54.714Z,102048.91
2023-05-02T16:36:22.745Z,102048.29
2023-05-02T16:38:51.671Z,102053.56
2023-05-02T16:41:19.705Z,102053.14
2023-05-02T16:43:50.071Z,102052.19
2023-05-02T16:46:18.218Z,102056.34
2023-05-02T16:48:46.323Z,102061.21
2023-05-02T16:51:14.340Z,102063.30
2023-05-02T16:53:43.623Z,102059.98
2023-05-02T16:56:11.812Z,102060.86
2023-05-02T16:58:39.928Z,102068.22
2023-05-02T17:01:08.666Z,102064.17
2023-05-02T17:03:37.182Z,102066.91
2023-05-02T17:06:05.223Z,102073.52
2023-05-02T17:08:33.294Z,102074.34
2023-05-02T17:11:01.677Z,102078.84
2023-05-02T17:13:30.066Z,102075.84
2023-05-02T17:15:58.924Z,102083.29
2023-05-02T17:18:28.221Z,102083.91
2023-05-02T17:20:56.292Z,102084.20
2023-05-02T17:23:24.825Z,102082.57
2023-05-02T17:25:52.958Z,102086.71
2023-05-02T17:28:21.105Z,102087.19
2023-05-02T17:30:49.132Z,102087.15
2023-05-02T17:33:17.539Z,102090.20
2023-05-02T17:35:45.400Z,102089.80
2023-05-02T17:38:13.707Z,102092.92
2023-05-02T17:40:41.721Z,102100.95
2023-05-02T17:43:09.832Z,102103.88
2023-05-02T17:45:39.675Z,102103.48
2023-05-02T17:48:07.801Z,102107.95
2023-05-02T17:50:39.528Z,102114.48
2023-05-02T17:53:08.390Z,102120.65
2023-05-02T17:55:37.740Z,102116.86
2023-05-02T17:58:05.759Z,102117.44
2023-05-02T18:00:34.150Z,102113.88
2023-05-02T18:03:02.773Z,102116.46
2023-05-02T18:05:30.932Z,102115.79
2023-05-02T18:07:58.946Z,102123.06
2023-05-02T18:10:27.659Z,102125.09
2023-05-02T18:12:55.642Z,102126.25
2023-05-02T18:15:23.635Z,102128.25
2023-05-02T18:17:51.735Z,102131.11
2023-05-02T18:20:19.987Z,102137.13
2023-05-02T18:22:48.002Z,102139.61
2023-05-02T18:25:16.203Z,102145.55
2023-05-02T18:27:45.131Z,102148.41
2023-05-02T18:30:13.353Z,102148.04
2023-05-02T18:32:41.298Z,102152.54
2023-05-02T18:35:11.232Z,102152.88
2023-05-02T18:37:39.302Z,102156.64
2023-05-02T18:40:08.669Z,102156.01
2023-05-02T18:42:36.968Z,102159.73
2023-05-02T18:45:06.208Z,102161.37
2023-05-02T18:47:35.062Z,102164.78
2023-05-02T18:50:04.786Z,102169.04
2023-05-02T18:52:32.835Z,102176.12
2023-05-02T18:55:03.363Z,102178.63
2023-05-02T18:57:33.893Z,102180.14
2023-05-02T19:00:02.173Z,102183.55
2023-05-02T19:02:30.199Z,102185.38
2023-05-02T19:04:58.311Z,102191.38
2023-05-02T19:07:26.545Z,102192.64
2023-05-02T19:09:54.548Z,102191.66
2023-05-02T19:12:22.522Z,102193.14
2023-05-02T19:14:50.905Z,102197.48
2023-05-02T19:17:18.862Z,102195.19
2023-05-02T19:19:48.249Z,102201.01
2023-05-02T19:22:16.543Z,102196.60
2023-05-02T19:24:44.615Z,102199.36
2023-05-02T19:27:12.534Z,102201.95
2023-05-02T19:29:41.777Z,102205.45
2023-05-02T19:32:10.108Z,102207.17
2023-05-02T19:34:38.328Z,102206.95
2023-05-02T19:37:06.471Z,102210.52
2023-05-02T19:39:34.490Z,102214.27
2023-05-02T19:42:03.376Z,102212.52
2023-05-02T19:44:31.634Z,102217.73
2023-05-02T19:46:59.548Z,102221.23
2023-05-02T19:49:27.479Z,102222.63
2023-05-02T19:51:55.601Z,102226.27
2023-05-02T19:54:23.611Z,102230.59
2023-05-02T19:56:51.584Z,102234.38
2023-05-02T19:59:19.978Z,102232.27
2023-05-02T20:01:48.126Z,102229.77
2023-05-02T20:04:16.525Z,102240.56
2023-05-02T20:06:44.684Z,102242.25
2023-05-02T20:09:12.875Z,102242.97
2023-05-02T20:11:41.087Z,102238.55
2023-05-02T20:14:09.301Z,102241.27
2023-05-02T20:16:37.758Z,102243.10
2023-05-02T20:19:05.970Z,102250.30
2023-05-02T20:21:34.016Z,102252.59
2023-05-02T20:24:01.991Z,102252.37
2023-05-02T20:26:31.556Z,102252.34
2023-05-02T20:29:00.219Z,102253.13
2023-05-02T20:31:28.259Z,102253.73
2023-05-02T20:33:56.347Z,102258.20
2023-05-02T20:36:24.374Z,102258.98
2023-05-02T20:38:52.351Z,102263.44
2023-05-02T20:41:21.473Z,102260.45
2023-05-02T20:43:49.818Z,102260.96
2023-05-02T20:46:19.302Z,102258.55
2023-05-02T20:48:47.748Z,102266.26
2023-05-02T20:51:16.646Z,102269.20
2023-05-02T20:53:44.986Z,102271.73
2023-05-02T20:56:13.162Z,102276.98
2023-05-02T20:58:41.329Z,102274.84
2023-05-02T21:01:09.419Z,102275.48
2023-05-02T21:03:39.835Z,102283.07
2023-05-02T21:06:07.974Z,102285.75
2023-05-02T21:08:36.968Z,102284.81
2023-05-02T21:11:13.690Z,102285.56
2023-05-02T21:13:43.023Z,102292.89
2023-05-02T21:16:15.648Z,102293.10
2023-05-02T21:18:44.051Z,102297.44
2023-05-02T21:21:12.288Z,102299.74
2023-05-02T21:23:40.241Z,102295.71
2023-05-02T21:26:08.339Z,102301.55
2023-05-02T21:28:38.100Z,102307.40
2023-05-02T21:31:07.862Z,102306.38
2023-05-02T21:33:36.222Z,102307.75
2023-05-02T21:36:04.808Z,102311.20
2023-05-02T21:38:33.165Z,102315.83
2023-05-02T21:41:03.390Z,102315.85
2023-05-02T21:43:34.883Z,102318.30
2023-05-02T21:46:02.825Z,102322.20
2023-05-02T21:48:30.993Z,102325.67
2023-05-02T21:50:58.973Z,102324.56
2023-05-02T21:53:27.367Z,102324.98
2023-05-02T21:55:55.835Z,102325.05
2023-05-02T21:58:24.204Z,102323.88
2023-05-02T22:00:52.404Z,102328.97
2023-05-02T22:03:39.464Z,102333.84
2023-05-02T22:06:08.091Z,102337.20
2023-05-02T22:08:36.447Z,102332.84
2023-05-02T22:11:09.469Z,102338.70
2023-05-02T22:13:37.801Z,102338.77
2023-05-02T22:16:06.970Z,102340.56
2023-05-02T22:18:35.215Z,102342.48
2023-05-02T22:21:03.986Z,102340.27
2023-05-02T22:23:32.058Z,102344.23
2023-05-02T22:26:00.164Z,102347.73
2023-05-02T22:28:28.193Z,102348.61
2023-05-02T22:30:56.317Z,102348.85
2023-05-02T22:33:24.530Z,102352.80
2023-05-02T22:35:52.496Z,102351.08
2023-05-02T22:38:20.693Z,102349.86
2023-05-02T22:40:49.441Z,102346.72
2023-05-02T22:43:17.882Z,102346.00
2023-05-02T22:45:46.620Z,102349.29
2023-05-02T22:48:14.589Z,102353.11
2023-05-02T22:50:43.536Z,102355.42
2023-05-02T22:53:11.570Z,102354.89
2023-05-02T22:55:39.519Z,102362.69
2023-05-02T22:58:07.457Z,102363.85
2023-05-02T23:00:35.480Z,102364.02
2023-05-02T23:03:03.845Z,102359.83
2023-05-02T23:05:31.959Z,102363.52
2023-05-02T23:08:02.128Z,102366.27
2023-05-02T23:10:30.144Z,102369.70
2023-05-02T23:12:58.163Z,102371.79
2023-05-02T23:15:26.133Z,102375.21
2023-05-02T23:17:54.125Z,102375.37
2023-05-02T23:20:23.333Z,102372.29
2023-05-02T23:22:51.406Z,102371.30
2023-05-02T23:25:20.175Z,102372.94
2023-05-02T23:27:48.225Z,102372.52
2023-05-02T23:30:16.217Z,102376.11
2023-05-02T23:32:44.717Z,102378.63
2023-05-02T23:35:12.892Z,102378.48
2023-05-02T23:37:41.289Z,102378.05
2023-05-02T23:40:09.820Z,102374.50
2023-05-02T23:42:40.433Z,102376.95
2023-05-02T23:45:09.899Z,102378.05
2023-05-02T23:47:38.444Z,102377.30
2023-05-02T23:50:07.857Z,102382.41
2023-05-02T23:52:35.915Z,102376.20
2023-05-02T23:55:04.361Z,102381.99
2023-05-02T23:57:32.338Z,102382.38
